createdAt,value
2023-01-08T05:04:10.223Z,1.75
2023-01-08T05:37:47.219Z,1.65
2023-01-08T05:42:48.114Z,1.63
2023-01-08T07:23:39.545Z,1.40
2023-01-08T07:26:24.806Z,1.42
2023-01-08T07:28:58.950Z,1.41
2023-01-08T07:31:51.838Z,1.39
2023-01-08T07:34:55.882Z,1.38
2023-01-08T08:02:30.018Z,1.38
2023-01-08T08:04:59.837Z,1.38
2023-01-08T08:09:13.914Z,1.39
2023-01-08T08:11:48.416Z,1.40
2023-01-08T08:14:18.470Z,1.39
2023-01-08T08:17:39.101Z,1.38
2023-01-08T08:23:30.916Z,1.39
2023-01-08T08:25:04.929Z,1.40
2023-01-08T10:06:13.130Z,2.32
2023-01-08T12:54:33.053Z,2.14
2023-01-08T13:13:33.619Z,2.00
2023-01-08T13:16:46.366Z,2.01
2023-01-08T14:31:00.535Z,1.77
2023-01-08T14:33:38.126Z,1.76
2023-01-08T14:36:07.758Z,1.74
2023-01-08T14:38:34.960Z,1.72
2023-01-08T14:41:11.147Z,1.71
2023-01-08T14:43:49.796Z,1.70
2023-01-08T14:46:26.268Z,1.69
2023-01-08T14:48:55.669Z,1.70
2023-01-08T14:51:29.166Z,1.69
2023-01-08T14:54:05.415Z,1.68
2023-01-08T14:56:35.158Z,1.67
2023-01-08T14:59:15.176Z,1.69
2023-01-08T15:01:42.741Z,1.68
2023-01-08T15:04:18.886Z,1.67
2023-01-08T15:06:47.148Z,1.66
2023-01-08T15:13:40.322Z,1.60
2023-01-08T15:16:16.701Z,1.57
2023-01-08T15:18:54.595Z,1.57
2023-01-08T15:21:23.672Z,1.57
2023-01-08T15:23:55.502Z,1.56
2023-01-08T15:26:41.568Z,1.56
2023-01-08T15:29:29.651Z,1.55
2023-01-08T15:58:44.558Z,1.49
2023-01-08T16:04:24.528Z,1.47
2023-01-08T16:06:34.713Z,1.50
2023-01-08T16:17:32.057Z,1.53
2023-01-08T16:22:06.913Z,1.54
2023-01-08T16:29:31.583Z,1.55
2023-01-08T16:50:42.014Z,1.53
2023-01-08T17:05:15.411Z,1.52
2023-01-08T17:07:44.297Z,1.52
2023-01-08T17:10:13.953Z,1.54
2023-01-08T17:12:41.317Z,1.56
2023-01-08T17:15:09.669Z,1.57
2023-01-08T17:17:38.362Z,1.56
2023-01-08T17:20:06.275Z,1.54
2023-01-08T17:22:34.248Z,1.55
2023-01-08T17:25:01.720Z,1.57
2023-01-08T17:27:29.075Z,1.59
2023-01-08T17:29:56.214Z,1.58
2023-01-08T17:32:23.594Z,1.59
2023-01-08T17:34:50.952Z,1.61
2023-01-08T17:37:18.157Z,1.64
2023-01-08T17:39:45.446Z,1.65
2023-01-08T17:42:26.427Z,1.65
2023-01-08T17:44:55.721Z,1.64
2023-01-08T17:47:24.578Z,1.62
2023-01-08T17:49:54.110Z,1.58
2023-01-08T17:52:23.226Z,1.60
2023-01-08T17:54:52.771Z,1.62
2023-01-08T17:57:22.097Z,1.62
2023-01-08T17:59:51.741Z,1.63
2023-01-08T18:02:22.221Z,1.63
2023-01-08T18:04:51.243Z,1.60
2023-01-08T18:07:24.490Z,1.60
2023-01-08T18:09:54.176Z,1.63
2023-01-08T18:12:22.564Z,1.65
2023-01-08T18:14:51.430Z,1.67
2023-01-08T18:17:19.783Z,1.70
2023-01-08T18:19:49.378Z,1.69
2023-01-08T18:22:17.012Z,1.67
2023-01-08T18:24:45.681Z,1.66
2023-01-08T18:27:14.319Z,1.70
2023-01-08T18:29:43.538Z,1.71
2023-01-08T18:32:12.528Z,1.71
2023-01-08T18:34:44.260Z,1.68
2023-01-08T18:37:12.827Z,1.65
2023-01-08T18:39:42.113Z,1.66
2023-01-08T18:42:28.749Z,1.66
2023-01-08T18:44:58.361Z,1.65
2023-01-08T18:47:28.985Z,1.65
2023-01-08T18:49:59.767Z,1.67
2023-01-08T18:52:27.617Z,1.69
2023-01-08T18:54:59.492Z,1.71
2023-01-08T18:57:30.368Z,1.71
2023-01-08T19:00:11.967Z,1.72
2023-01-08T19:02:40.858Z,1.75
2023-01-08T19:05:09.435Z,1.78
2023-01-08T19:07:43.191Z,1.80
2023-01-08T19:10:28.828Z,1.80
2023-01-08T19:12:58.891Z,1.82
2023-01-08T19:15:30.401Z,1.84
2023-01-08T19:18:04.022Z,1.87
2023-01-08T19:20:32.689Z,1.89
2023-01-08T19:23:00.417Z,1.91
2023-01-08T19:25:28.105Z,1.90
2023-01-08T19:27:58.588Z,1.90
2023-01-08T19:30:30.411Z,1.92
2023-01-08T19:33:00.240Z,1.94
2023-01-08T19:35:31.358Z,1.94
2023-01-08T19:38:00.556Z,1.96
2023-01-08T19:40:28.734Z,1.95
2023-01-08T19:43:15.150Z,1.91
2023-01-08T19:45:42.599Z,1.88
2023-01-08T19:48:10.461Z,1.86
2023-01-08T19:50:41.787Z,1.84
2023-01-08T19:53:12.278Z,1.86
2023-01-08T19:55:42.136Z,1.89
2023-01-08T19:58:10.800Z,1.91
2023-01-08T20:00:39.207Z,1.93
2023-01-08T20:03:07.583Z,1.95
2023-01-08T20:05:48.239Z,1.96
2023-01-08T20:08:20.133Z,1.96
2023-01-08T20:10:48.455Z,1.96
2023-01-08T20:13:18.143Z,1.96
2023-01-08T20:15:57.762Z,1.98
2023-01-08T20:18:29.889Z,1.98
2023-01-08T20:21:26.409Z,1.98
2023-01-08T20:24:01.691Z,1.97
2023-01-08T20:26:32.549Z,1.97
2023-01-08T20:29:04.335Z,1.98
2023-01-08T20:31:42.868Z,2.01
2023-01-08T20:34:18.799Z,2.04
2023-01-08T20:36:47.713Z,2.05
2023-01-08T20:39:19.711Z,2.05
2023-01-08T20:42:00.826Z,2.03
2023-01-08T20:44:33.622Z,2.02
2023-01-08T20:47:06.116Z,2.01
2023-01-08T20:49:35.017Z,2.00
2023-01-08T20:52:03.891Z,2.02
2023-01-08T20:54:32.907Z,2.04
2023-01-08T20:57:01.088Z,2.03
2023-01-08T20:59:29.533Z,2.01
2023-01-08T21:01:57.652Z,2.01
2023-01-08T21:04:25.431Z,2.01
2023-01-08T21:06:56.804Z,2.02
2023-01-08T21:09:25.657Z,2.04
2023-01-08T21:11:54.042Z,2.06
2023-01-08T21:14:21.743Z,2.05
2023-01-08T21:16:49.182Z,2.04
2023-01-08T21:19:16.584Z,2.04
2023-01-08T21:21:45.392Z,2.02
2023-01-08T21:24:13.214Z,2.03
2023-01-08T21:26:41.807Z,2.04
2023-01-08T21:29:10.405Z,2.04
2023-01-08T21:31:38.879Z,2.03
2023-01-08T21:34:08.403Z,2.01
2023-01-08T21:36:36.842Z,2.01
2023-01-08T21:39:04.878Z,2.00
2023-01-08T21:41:51.392Z,2.00
2023-01-08T21:44:40.115Z,2.00
2023-01-08T21:47:11.845Z,1.96
2023-01-08T21:53:59.006Z,1.97
2023-01-08T21:56:26.374Z,1.99
2023-01-08T21:58:53.877Z,1.98
2023-01-08T22:01:21.321Z,1.99
2023-01-08T22:03:48.596Z,1.97
2023-01-08T22:06:16.058Z,1.97
2023-01-08T22:08:44.833Z,1.98
2023-01-08T22:11:12.944Z,1.98
2023-01-08T22:13:40.218Z,1.98
2023-01-08T22:16:10.386Z,1.97
2023-01-08T22:18:39.498Z,1.97
2023-01-08T22:21:10.424Z,1.97
2023-01-08T22:23:40.530Z,1.96
2023-01-08T22:26:12.556Z,1.98
2023-01-08T22:32:52.667Z,1.99
2023-01-08T22:35:20.372Z,1.99
2023-01-08T22:37:49.697Z,1.98
2023-01-08T22:40:18.886Z,1.97
2023-01-08T22:42:47.092Z,1.96
2023-01-08T22:45:14.988Z,1.96
2023-01-08T22:47:43.171Z,1.95
2023-01-08T22:50:12.049Z,1.95
2023-01-08T22:52:40.116Z,1.97
2023-01-08T22:55:08.899Z,1.99
2023-01-08T22:57:38.200Z,2.01
2023-01-08T23:00:10.878Z,2.00
2023-01-08T23:02:39.383Z,2.03
2023-01-08T23:05:09.073Z,2.01
2023-01-08T23:07:37.710Z,1.99
2023-01-08T23:14:24.726Z,2.00
2023-01-08T23:16:53.845Z,2.00
2023-01-08T23:19:21.527Z,2.00
2023-01-08T23:21:49.510Z,1.96
2023-01-08T23:24:17.664Z,1.96
2023-01-08T23:26:45.336Z,1.97
2023-01-08T23:29:12.928Z,2.00
2023-01-08T23:31:42.707Z,2.01
2023-01-08T23:34:10.503Z,2.01
2023-01-08T23:36:40.370Z,2.01
2023-01-08T23:39:12.073Z,2.00
2023-01-08T23:41:44.113Z,2.01
2023-01-08T23:44:16.768Z,2.02
2023-01-08T23:46:46.690Z,2.01
2023-01-08T23:49:17.052Z,2.01
2023-01-08T23:51:47.665Z,2.00
2023-01-08T23:54:17.959Z,2.00
2023-01-08T23:56:48.735Z,2.00
